Weather at Centre de Secours de Courchevel Heliport

Public forecast

Using degrees Celsius for public forecast. Weather courtesy of forecast.io.

Closest aviation weather report (METAR) to Centre de Secours de Courchevel Heliport

Closest report is Chambéry-Savoie Airport, 34.4 nm (63.7 km) WNW. Retrieved 2020/11/25 13:30 UTC (9 minutes ago):

LFLB 251330Z AUTO VRB01KT CAVOK 06/04 Q1020 NOSIG

Closest aviation forecast (TAF) to Centre de Secours de Courchevel Heliport

Closest forecast is Chambéry-Savoie Airport, 34.4 nm (63.7 km) WNW. Retrieved 2020/11/25 09:46 UTC (4 hours ago):

TAF LFLB 250800Z 2509/2609 VRB02KT 3000 BR NSC TEMPO 2509/2510 0600 FG BKN002 BECMG 2510/2512 8000 NSW BECMG 2512/2515 CAVOK TEMPO 2522/2607 3000 BR